Omaha, NE (68116)

10:33 PM CDT on August 31, 2015 (GMT -0500)
The OmaHadland Centre Observatory | | Change Station
CLOSE
Current Station
Personal Weather Station
Location: Omaha, NE
Elevation: 1171 ft
Nearby Weather Stations

Elev 1171 ft 41.28 °N, 96.17 °W | Updated 23 seconds ago

Clear
Clear
76.7 °F
Feels Like 75 °F
N
0.8
Wind Variable Wind from SSE
Gusts 1.8 mph

Today
High -- | Low -- °F
--% Chance of Precip.
Yesterday
High -- | Low -- °F
Precip. -- in
6:49 AM 7:59 PM
Waning Gibbous, 92% visible
Pressure 29.92 in
Visibility 10.0 miles
Clouds Clear
Heat Index 75 °F
Dew Point Not available.
Humidity Not available.
Rainfall 0.00 in
Snow Depth Not available.
UV 0 out of 12
Pollen 11.10 out of 12
Air Quality Not available.
Flu Activity Not available.
METAR KMLE 010315Z AUTO 14004KT 10SM CLR 24/21 A2992 RMK AO2 T02370209
Pressure 29.92 in
Visibility 10.0 miles
Clouds Clear
Heat Index 75 °F
Dew Point Not available.
Humidity Not available.
Rainfall 0.00 in
Snow Depth Not available.
UV 0 out of 12
Pollen 11.10 out of 12
Air Quality Not available.
Flu Activity Not available.
METAR KMLE 010315Z AUTO 14004KT 10SM CLR 24/21 A2992 RMK AO2 T02370209

10-Day Weather Forecast

×

Almanac

Astronomy

Aug. 31, 2015 Rise Set
Actual Time
Civil Twilight
Nautical Twilight
Astronomical Twilight
Moon
Length of Visible Light
Length of Day
Tomorrow will be .
, % of the Moon is Illuminated

Today's Extremes

State Highs State Lows

Community

WunderPhotos

Upload Photos

1,851,475 photos uploaded!

WunderBlogs® & News

Nearby

Air Quality

  Air Quality AQ Index Pollutant
Not available.

Snow Depth

Station Depth Elevation

Earthquake Activity

City Distance Mag. Time & Date
Minimum magnitude displayed is 2.5.

Coastal Water Temperatures

Place Temperature

Stations

Nearby Weather Stations

Station Location Temp. Windchill Dew Point Humidity Wind Precip. Elev Updated Type